Time;durP1;ratioP1;P1;durP2;ratioP2;P2;SDS_P1;SDS_P2;PMS_P1;PMS_P2;Temp;Humidity;BMP_temperature;BMP_pressure;BME280_temperature;BME280_humidity;BME280_pressure;Samples;Min_cycle;Max_cycle;Signal;HPM_P1;HPM_P2
2021/06/26 04:02:36;;;;;;;24.60;22.20;;;18.00;99.90;;;;;;4994856;23;20540;-63
2021/06/26 04:05:04;;;;;;;22.50;20.57;;;18.10;99.90;;;;;;4994349;28;20461;-63
2021/06/26 04:07:30;;;;;;;21.80;20.03;;;18.10;99.90;;;;;;4994628;28;20616;-63
2021/06/26 04:09:57;;;;;;;22.30;20.37;;;18.20;99.90;;;;;;4994262;28;20456;-62
2021/06/26 04:12:24;;;;;;;22.27;20.07;;;18.20;99.90;;;;;;4994097;28;20872;-63
2021/06/26 04:14:50;;;;;;;22.30;20.30;;;18.20;99.90;;;;;;5000593;28;20458;-62
2021/06/26 04:17:17;;;;;;;21.63;19.90;;;18.20;99.90;;;;;;5012999;28;20449;-62
2021/06/26 04:19:45;;;;;;;23.93;21.67;;;18.30;99.90;;;;;;5011893;28;20461;-62
2021/06/26 04:22:12;;;;;;;23.70;21.70;;;18.40;99.90;;;;;;5000709;28;20477;-65
2021/06/26 04:24:39;;;;;;;22.80;20.60;;;18.30;99.90;;;;;;4994928;28;20454;-63
2021/06/26 04:27:06;;;;;;;22.63;20.40;;;18.30;99.90;;;;;;4994370;28;20462;-63
2021/06/26 04:29:33;;;;;;;23.00;20.93;;;18.30;99.90;;;;;;4994642;28;20458;-63
2021/06/26 04:32:00;;;;;;;22.53;20.50;;;18.30;99.90;;;;;;4994156;28;20492;-62
2021/06/26 04:34:27;;;;;;;23.80;21.80;;;18.30;99.90;;;;;;4994372;28;20461;-63
2021/06/26 04:36:55;;;;;;;23.63;21.47;;;18.30;99.90;;;;;;4994306;28;20454;-63
2021/06/26 04:39:22;;;;;;;23.67;21.43;;;18.30;99.90;;;;;;4996608;28;20948;-61
2021/06/26 04:41:48;;;;;;;22.83;20.73;;;18.30;99.90;;;;;;4997359;28;20973;-62
2021/06/26 04:44:15;;;;;;;25.07;22.87;;;18.30;99.90;;;;;;4997858;28;20442;-62
2021/06/26 04:46:42;;;;;;;25.43;22.97;;;18.30;99.90;;;;;;4997965;28;20454;-63
2021/06/26 04:49:10;;;;;;;23.07;21.07;;;18.30;99.90;;;;;;4997739;28;20462;-61
2021/06/26 04:51:38;;;;;;;26.20;23.70;;;18.40;99.90;;;;;;4997511;28;20485;-62
2021/06/26 04:54:06;;;;;;;23.13;21.03;;;18.30;99.90;;;;;;4997296;28;20449;-62
2021/06/26 04:56:33;;;;;;;23.63;21.53;;;18.40;99.90;;;;;;4997333;28;20845;-62
2021/06/26 04:59:00;;;;;;;21.43;19.53;;;18.40;99.90;;;;;;4997550;28;20457;-62
2021/06/26 05:01:26;;;;;;;21.50;19.60;;;18.40;99.90;;;;;;4997420;28;20992;-63
2021/06/26 05:03:53;;;;;;;22.63;20.63;;;18.50;99.90;;;;;;4997370;28;20454;-62
2021/06/26 05:06:20;;;;;;;24.10;21.70;;;18.50;99.90;;;;;;4997543;28;20476;-61
2021/06/26 05:08:47;;;;;;;25.30;22.73;;;18.60;99.90;;;;;;4998175;28;20461;-61
2021/06/26 05:11:15;;;;;;;23.60;21.50;;;18.60;99.90;;;;;;4997289;28;20488;-62
2021/06/26 05:13:41;;;;;;;24.10;21.70;;;18.70;99.90;;;;;;4997336;28;20462;-61
2021/06/26 05:16:08;;;;;;;24.23;22.03;;;18.80;99.90;;;;;;4997273;28;20453;-62
2021/06/26 05:18:35;;;;;;;22.27;20.20;;;18.70;99.90;;;;;;4997995;28;20457;-62
2021/06/26 05:21:03;;;;;;;23.47;21.13;;;18.80;99.90;;;;;;4997039;28;20481;-62
2021/06/26 05:23:30;;;;;;;22.50;20.60;;;18.80;99.90;;;;;;4996683;28;20790;-61
2021/06/26 05:25:56;;;;;;;21.37;19.50;;;18.80;99.90;;;;;;4997128;28;20457;-61
2021/06/26 05:28:24;;;;;;;23.13;20.83;;;18.90;99.90;;;;;;4997066;28;20480;-63
2021/06/26 05:30:51;;;;;;;22.77;20.77;;;19.00;99.90;;;;;;4996971;28;20493;-61
2021/06/26 05:33:18;;;;;;;21.77;19.87;;;19.00;99.90;;;;;;4996993;28;20457;-61
2021/06/26 05:35:46;;;;;;;22.20;20.00;;;19.20;99.90;;;;;;4997080;28;20450;-62
2021/06/26 05:38:13;;;;;;;22.80;20.90;;;19.20;99.90;;;;;;4996887;28;20454;-62
2021/06/26 05:40:39;;;;;;;20.97;19.20;;;19.40;99.90;;;;;;4996834;28;20474;-61
2021/06/26 05:43:06;;;;;;;22.47;20.37;;;19.50;99.90;;;;;;4997756;28;20824;-62
2021/06/26 05:45:34;;;;;;;22.77;20.47;;;19.50;99.90;;;;;;4996916;28;20477;-63
2021/06/26 05:48:01;;;;;;;22.83;20.70;;;19.40;99.90;;;;;;4996758;28;20442;-62
2021/06/26 05:50:27;;;;;;;22.23;20.23;;;19.50;99.90;;;;;;4995450;28;20949;-62
2021/06/26 05:52:56;;;;;;;22.13;20.40;;;19.60;99.90;;;;;;4996777;28;20457;-62
2021/06/26 05:55:24;;;;;;;26.00;19.40;;;19.90;99.90;;;;;;4996624;28;20457;-61
2021/06/26 05:57:50;;;;;;;22.00;20.20;;;20.00;99.90;;;;;;4997157;28;20454;-61
2021/06/26 06:00:19;;;;;;;22.37;20.03;;;20.00;99.90;;;;;;4996516;28;20458;-61
2021/06/26 06:02:48;;;;;;;22.53;20.40;;;20.10;99.90;;;;;;4996661;28;20438;-61
2021/06/26 06:05:15;;;;;;;20.50;18.80;;;20.30;99.90;;;;;;4997208;28;20454;-62
2021/06/26 06:07:42;;;;;;;22.20;20.20;;;20.50;99.90;;;;;;4996429;28;20465;-62
2021/06/26 06:10:11;;;;;;;23.57;21.27;;;20.70;99.90;;;;;;4996163;28;20925;-61
2021/06/26 06:12:39;;;;;;;21.93;19.70;;;20.60;99.90;;;;;;4996714;28;20477;-61
2021/06/26 06:15:08;;;;;;;22.00;20.00;;;21.00;99.90;;;;;;5013881;28;20449;-62
2021/06/26 06:17:35;;;;;;;21.17;19.40;;;21.10;99.90;;;;;;5017372;28;20450;-62
2021/06/26 06:20:05;;;;;;;27.40;19.77;;;21.40;99.90;;;;;;5016114;28;20465;-61
2021/06/26 06:22:32;;;;;;;22.00;20.00;;;21.60;99.90;;;;;;5010895;28;20509;-62
2021/06/26 06:24:59;;;;;;;21.20;19.30;;;21.40;99.90;;;;;;4995897;28;20454;-62
2021/06/26 06:27:25;;;;;;;22.00;20.07;;;21.50;99.90;;;;;;4996112;28;20810;-62
2021/06/26 06:29:52;;;;;;;21.00;19.13;;;21.70;99.90;;;;;;4995701;28;20458;-62
2021/06/26 06:32:19;;;;;;;20.33;18.63;;;21.90;99.90;;;;;;4995902;28;20513;-61
2021/06/26 06:34:46;;;;;;;19.10;17.60;;;22.10;99.90;;;;;;4996017;28;20480;-62
2021/06/26 06:37:14;;;;;;;20.73;18.93;;;22.20;99.90;;;;;;4995769;28;20541;-61
2021/06/26 06:39:41;;;;;;;21.20;19.20;;;22.40;99.90;;;;;;4995938;28;20458;-62
2021/06/26 06:42:08;;;;;;;20.73;18.83;;;22.30;99.90;;;;;;4996803;28;20469;-63
2021/06/26 06:44:35;;;;;;;19.97;18.17;;;22.30;99.90;;;;;;4998731;28;20790;-63
2021/06/26 06:47:02;;;;;;;19.87;18.23;;;22.50;99.90;;;;;;5006052;28;20453;-62
2021/06/26 06:49:29;;;;;;;17.63;16.30;;;22.50;99.90;;;;;;5004991;28;20450;-62
2021/06/26 06:51:55;;;;;;;18.80;17.20;;;22.70;99.90;;;;;;5001692;28;20482;-62
2021/06/26 06:54:23;;;;;;;18.73;17.13;;;22.40;99.90;;;;;;4997233;28;20450;-62
2021/06/26 06:56:50;;;;;;;17.63;16.10;;;22.30;99.90;;;;;;4996895;28;20480;-62
2021/06/26 06:59:17;;;;;;;19.00;17.40;;;22.20;99.90;;;;;;4996340;28;20477;-63
2021/06/26 07:01:43;;;;;;;17.40;16.00;;;22.40;99.90;;;;;;4999756;28;20522;-62
2021/06/26 07:04:10;;;;;;;17.73;16.30;;;23.00;99.90;;;;;;5006341;28;20444;-62
2021/06/26 07:06:37;;;;;;;16.30;14.80;;;23.20;99.90;;;;;;5005605;28;20434;-61
2021/06/26 07:09:04;;;;;;;17.63;16.00;;;23.50;99.90;;;;;;4997516;28;20458;-62
2021/06/26 07:11:32;;;;;;;16.70;15.40;;;23.60;99.90;;;;;;4996449;28;20484;-63
2021/06/26 07:13:58;;;;;;;15.63;14.23;;;23.50;99.90;;;;;;4997096;28;20832;-62
2021/06/26 07:16:25;;;;;;;14.30;13.10;;;23.40;99.90;;;;;;4997750;28;20454;-62
2021/06/26 07:18:52;;;;;;;14.27;13.03;;;23.40;99.90;;;;;;4997504;28;20864;-62
2021/06/26 07:21:18;;;;;;;14.37;13.17;;;23.90;99.90;;;;;;4996621;28;20474;-62
2021/06/26 07:23:45;;;;;;;15.13;13.83;;;24.60;99.90;;;;;;4995016;28;20822;-62
2021/06/26 07:26:12;;;;;;;15.57;14.27;;;24.90;99.90;;;;;;4996553;28;20457;-61
2021/06/26 07:28:40;;;;;;;13.40;12.40;;;25.10;99.90;;;;;;4996386;28;20457;-62
2021/06/26 07:31:06;;;;;;;14.23;13.13;;;25.30;99.90;;;;;;4994757;28;20508;-62
2021/06/26 07:33:33;;;;;;;13.53;12.30;;;24.80;99.90;;;;;;4994927;28;20457;-62
2021/06/26 07:36:00;;;;;;;12.40;11.30;;;24.60;99.90;;;;;;4994754;28;20453;-63
2021/06/26 07:38:27;;;;;;;13.90;12.87;;;24.60;99.90;;;;;;4994875;28;20461;-63
2021/06/26 07:40:53;;;;;;;12.77;10.63;;;24.60;99.90;;;;;;4994905;28;20481;-63
2021/06/26 07:43:20;;;;;;;13.37;12.37;;;25.10;99.90;;;;;;4994680;28;20454;-64
2021/06/26 07:45:48;;;;;;;12.47;11.57;;;25.70;99.90;;;;;;4994860;28;20480;-64
2021/06/26 07:48:15;;;;;;;13.03;11.93;;;26.00;99.90;;;;;;4994912;28;20458;-63
2021/06/26 07:50:41;;;;;;;12.47;11.50;;;26.00;99.90;;;;;;4994684;28;20481;-64
2021/06/26 07:53:08;;;;;;;11.50;10.30;;;26.70;99.90;;;;;;4994538;28;20489;-63
2021/06/26 07:55:35;;;;;;;12.57;11.30;;;27.20;99.90;;;;;;4994644;28;20464;-64
2021/06/26 07:58:01;;;;;;;16.00;10.80;;;28.00;99.90;;;;;;4994650;28;20480;-65
2021/06/26 08:00:28;;;;;;;11.13;10.03;;;28.50;99.90;;;;;;4994266;28;20483;-64
2021/06/26 08:02:56;;;;;;;10.20;9.37;;;28.80;99.90;;;;;;5005625;28;20434;-64
2021/06/26 08:05:23;;;;;;;11.43;10.50;;;29.00;99.90;;;;;;4995360;28;20834;-64
2021/06/26 08:07:49;;;;;;;10.27;9.57;;;28.80;98.50;;;;;;4994654;28;20453;-64
2021/06/26 08:10:17;;;;;;;9.10;8.37;;;28.50;99.90;;;;;;4994452;28;20457;-64
2021/06/26 08:12:43;;;;;;;8.00;7.20;;;28.70;99.10;;;;;;4994503;28;20485;-64
2021/06/26 08:15:11;;;;;;;7.90;7.30;;;28.80;96.70;;;;;;4998361;28;20454;-63
2021/06/26 08:17:38;;;;;;;8.23;7.63;;;28.70;96.50;;;;;;4998690;28;20453;-63
2021/06/26 08:20:07;;;;;;;6.83;6.33;;;28.10;95.40;;;;;;4998418;28;20458;-63
2021/06/26 08:22:34;;;;;;;7.83;7.13;;;28.60;94.60;;;;;;4998373;28;20477;-63
2021/06/26 08:25:00;;;;;;;7.80;7.30;;;28.90;94.20;;;;;;4998678;28;20464;-63
2021/06/26 08:27:27;;;;;;;8.20;7.70;;;28.60;95.50;;;;;;4998377;28;20457;-64
2021/06/26 08:29:54;;;;;;;9.20;8.23;;;28.50;94.60;;;;;;5000837;28;20442;-63
2021/06/26 08:32:20;;;;;;;7.90;7.20;;;28.00;96.40;;;;;;5010551;28;20488;-63
2021/06/26 08:34:47;;;;;;;8.53;7.90;;;28.30;99.90;;;;;;5008601;28;20464;-64
2021/06/26 08:37:15;;;;;;;7.07;6.40;;;28.30;96.20;;;;;;5003049;28;20500;-64
2021/06/26 08:39:42;;;;;;;7.53;6.20;;;28.90;97.60;;;;;;5000317;28;20460;-63
2021/06/26 08:42:09;;;;;;;7.73;7.33;;;29.40;93.90;;;;;;4999169;28;20474;-64
2021/06/26 08:44:36;;;;;;;7.60;7.00;;;30.20;92.90;;;;;;4997774;28;20957;-64
2021/06/26 08:47:03;;;;;;;8.07;7.47;;;30.80;90.60;;;;;;4997733;28;20468;-63
2021/06/26 08:49:30;;;;;;;6.87;6.37;;;31.00;89.20;;;;;;4997637;28;20457;-64
2021/06/26 08:51:57;;;;;;;6.50;6.10;;;31.50;87.60;;;;;;4997343;28;20477;-64
2021/06/26 08:54:25;;;;;;;6.80;6.40;;;31.50;89.90;;;;;;4997208;28;20964;-64
2021/06/26 08:56:52;;;;;;;8.07;7.57;;;32.10;88.30;;;;;;4997483;28;20458;-63
2021/06/26 08:59:19;;;;;;;7.47;7.07;;;32.30;79.00;;;;;;4997480;28;20475;-63
2021/06/26 09:01:46;;;;;;;8.07;7.57;;;32.20;78.80;;;;;;4996958;28;20984;-64
2021/06/26 09:04:16;;;;;;;7.83;7.43;;;32.00;81.10;;;;;;4997348;28;20454;-63
2021/06/26 09:06:50;;;;;;;8.73;8.13;;;32.10;80.60;;;;;;4997312;28;20450;-65
2021/06/26 09:09:28;;;;;;;9.63;8.93;;;31.90;80.00;;;;;;4997418;28;20460;-64
2021/06/26 09:12:04;;;;;;;11.57;9.07;;;31.00;80.10;;;;;;4997194;28;20477;-63
2021/06/26 09:14:32;;;;;;;9.67;8.87;;;31.20;84.00;;;;;;4996967;28;20442;-63
2021/06/26 09:16:59;;;;;;;8.20;7.60;;;31.40;78.60;;;;;;4996878;28;20953;-65
2021/06/26 09:19:27;;;;;;;8.80;8.20;;;31.90;82.10;;;;;;4996854;28;20960;-63
2021/06/26 09:21:59;;;;;;;8.57;7.77;;;31.50;79.90;;;;;;4997275;28;20496;-63
2021/06/26 09:24:28;;;;;;;8.77;8.17;;;32.00;79.40;;;;;;4995951;28;20549;-64
2021/06/26 09:26:58;;;;;;;8.73;8.13;;;31.70;77.40;;;;;;4996755;28;20512;-64
2021/06/26 09:29:27;;;;;;;10.00;8.20;;;31.60;77.00;;;;;;4997089;28;20481;-64
2021/06/26 09:31:56;;;;;;;9.70;8.77;;;31.50;76.50;;;;;;4997280;28;20493;-63
2021/06/26 09:34:36;;;;;;;8.50;7.93;;;31.70;77.40;;;;;;4996827;28;20464;-63
2021/06/26 09:37:03;;;;;;;8.87;8.03;;;32.10;76.60;;;;;;4996682;28;20970;-63
2021/06/26 09:39:35;;;;;;;9.60;8.90;;;31.40;80.10;;;;;;4997156;28;20458;-63
2021/06/26 09:42:02;;;;;;;8.67;8.07;;;31.20;78.30;;;;;;4996789;28;20470;-64
2021/06/26 09:44:30;;;;;;;9.30;8.60;;;31.40;78.20;;;;;;4996991;28;20457;-64
2021/06/26 09:46:57;;;;;;;8.10;7.60;;;31.90;75.40;;;;;;4996804;28;20453;-63
2021/06/26 09:49:27;;;;;;;9.50;8.90;;;32.10;76.00;;;;;;4996666;28;20461;-64
2021/06/26 09:51:58;;;;;;;8.87;8.37;;;32.50;76.30;;;;;;4996110;28;20517;-63
2021/06/26 09:54:27;;;;;;;7.50;7.00;;;32.20;78.30;;;;;;4996735;28;20446;-64
2021/06/26 09:56:53;;;;;;;9.13;8.53;;;31.80;79.20;;;;;;4996751;28;20449;-64
2021/06/26 09:59:31;;;;;;;8.60;8.00;;;31.60;75.50;;;;;;4996752;28;20453;-63
2021/06/26 10:01:59;;;;;;;9.63;8.83;;;31.40;74.60;;;;;;4996205;28;20489;-64
2021/06/26 10:04:26;;;;;;;8.03;7.47;;;31.50;75.20;;;;;;4996702;28;20458;-64
2021/06/26 10:06:54;;;;;;;8.17;7.67;;;31.40;76.00;;;;;;4996943;28;20454;-64
2021/06/26 10:09:21;;;;;;;8.70;8.20;;;31.00;77.20;;;;;;4997135;28;20485;-64
2021/06/26 10:11:48;;;;;;;7.20;6.80;;;30.90;83.50;;;;;;4997269;28;20473;-64
2021/06/26 10:14:16;;;;;;;8.20;7.70;;;31.40;88.10;;;;;;4998641;28;20477;-64
2021/06/26 10:16:44;;;;;;;8.00;7.50;;;31.70;80.90;;;;;;5003093;28;20464;-64
2021/06/26 10:19:12;;;;;;;10.10;8.50;;;32.10;82.00;;;;;;5000606;28;20469;-64
2021/06/26 10:21:40;;;;;;;7.90;7.40;;;32.20;74.10;;;;;;4996090;28;20480;-63
2021/06/26 10:24:12;;;;;;;7.63;7.23;;;33.00;74.10;;;;;;4996298;28;20454;-64
2021/06/26 10:26:42;;;;;;;8.87;8.37;;;32.90;75.10;;;;;;4996846;28;20441;-63
2021/06/26 10:29:09;;;;;;;7.90;7.40;;;33.20;69.00;;;;;;4996644;28;20442;-64
2021/06/26 10:31:38;;;;;;;8.30;7.70;;;33.00;71.20;;;;;;4996410;28;20477;-64
2021/06/26 10:34:14;;;;;;;8.47;7.97;;;33.10;69.30;;;;;;4996167;28;20988;-65
2021/06/26 10:36:44;;;;;;;8.97;8.37;;;32.80;76.70;;;;;;4995694;28;20438;-63
2021/06/26 10:39:22;;;;;;;7.93;7.37;;;32.20;72.80;;;;;;4996393;28;20545;-64
2021/06/26 10:42:04;;;;;;;8.33;7.70;;;32.10;77.10;;;;;;4995909;28;20826;-65
2021/06/26 10:44:45;;;;;;;7.73;7.33;;;32.20;75.50;;;;;;4995881;28;20799;-65
2021/06/26 10:47:12;;;;;;;8.10;7.50;;;31.40;75.30;;;;;;4995930;28;20449;-63
2021/06/26 10:49:41;;;;;;;8.80;8.20;;;31.30;77.80;;;;;;4995989;28;20458;-65
2021/06/26 10:52:10;;;;;;;7.57;7.07;;;31.20;78.40;;;;;;4995342;28;20988;-63
2021/06/26 10:54:37;;;;;;;7.33;6.80;;;31.10;79.00;;;;;;4995999;28;20442;-65
2021/06/26 10:57:06;;;;;;;7.60;7.20;;;31.90;75.50;;;;;;4995770;28;20464;-63
2021/06/26 10:59:34;;;;;;;7.70;7.10;;;32.60;73.40;;;;;;4995711;28;20461;-63
2021/06/26 11:02:03;;;;;;;7.40;6.80;;;33.00;77.10;;;;;;4995505;28;20524;-64
2021/06/26 11:04:31;;;;;;;7.47;7.00;;;33.50;72.90;;;;;;4995697;28;20453;-64
2021/06/26 11:07:07;;;;;;;7.70;7.30;;;33.40;69.00;;;;;;4995405;28;20557;-63
2021/06/26 11:09:38;;;;;;;8.27;7.77;;;33.50;71.90;;;;;;4995633;28;20457;-64
2021/06/26 11:12:10;;;;;;;7.63;7.23;;;33.30;69.50;;;;;;4995335;28;20481;-65
2021/06/26 11:14:36;;;;;;;7.83;7.33;;;32.90;72.90;;;;;;4995144;28;20437;-64
2021/06/26 11:17:06;;;;;;;8.00;7.53;;;32.40;71.30;;;;;;4995104;28;20434;-64
2021/06/26 11:19:34;;;;;;;7.90;7.20;;;31.80;71.70;;;;;;4995777;28;20454;-64
2021/06/26 11:22:02;;;;;;;7.20;6.80;;;31.20;71.40;;;;;;4995381;28;20469;-64
2021/06/26 11:24:36;;;;;;;7.30;6.80;;;31.20;71.20;;;;;;4995112;28;20508;-65
2021/06/26 11:27:04;;;;;;;6.50;6.20;;;30.70;70.40;;;;;;4995082;28;20450;-64
2021/06/26 11:29:36;;;;;;;7.50;7.00;;;30.20;74.10;;;;;;4995093;28;20454;-63
2021/06/26 11:32:05;;;;;;;7.87;7.37;;;30.10;72.90;;;;;;4995125;28;20469;-64
2021/06/26 11:34:32;;;;;;;7.30;6.80;;;30.40;76.00;;;;;;4994833;28;21012;-64
2021/06/26 11:37:03;;;;;;;7.80;7.30;;;30.70;74.70;;;;;;4994606;28;20453;-64
2021/06/26 11:39:31;;;;;;;8.50;7.90;;;30.70;72.40;;;;;;4995085;28;20878;-64
2021/06/26 11:41:59;;;;;;;8.50;7.50;;;30.50;81.10;;;;;;4994931;28;20473;-65
2021/06/26 11:44:33;;;;;;;8.40;7.80;;;30.60;76.20;;;;;;4995130;28;20481;-64
2021/06/26 11:47:01;;;;;;;9.30;8.80;;;30.40;79.10;;;;;;4994820;28;20457;-64
2021/06/26 11:49:40;;;;;;;9.10;8.50;;;30.00;80.00;;;;;;4994855;28;20454;-65
2021/06/26 11:52:09;;;;;;;7.07;6.67;;;30.10;78.20;;;;;;4994899;28;20477;-64
2021/06/26 11:54:36;;;;;;;9.20;8.37;;;29.90;81.90;;;;;;4994804;28;20484;-64
2021/06/26 11:57:08;;;;;;;8.90;8.20;;;29.40;80.30;;;;;;4997719;28;20461;-64
2021/06/26 11:59:42;;;;;;;8.67;8.17;;;29.20;79.20;;;;;;5001831;28;20519;-64
2021/06/26 12:02:09;;;;;;;8.10;7.30;;;28.90;81.40;;;;;;5004501;28;20485;-64
2021/06/26 12:04:38;;;;;;;8.30;7.70;;;29.10;88.30;;;;;;5006458;28;20446;-65
2021/06/26 12:07:05;;;;;;;10.53;9.83;;;29.20;82.80;;;;;;4996979;28;20458;-64
2021/06/26 12:09:32;;;;;;;8.03;7.53;;;28.80;84.00;;;;;;4995478;28;20804;-64
2021/06/26 12:11:59;;;;;;;9.03;8.33;;;28.80;85.30;;;;;;4995103;28;20849;-64
2021/06/26 12:14:30;;;;;;;9.00;8.40;;;28.10;85.30;;;;;;4994859;28;20540;-65
2021/06/26 12:17:05;;;;;;;8.53;8.00;;;28.40;85.70;;;;;;4995099;28;20449;-65
2021/06/26 12:19:33;;;;;;;8.57;8.07;;;28.30;85.70;;;;;;4995032;28;20461;-65
2021/06/26 12:22:01;;;;;;;8.23;7.70;;;28.60;88.40;;;;;;4994536;28;20474;-64
2021/06/26 12:24:29;;;;;;;7.70;7.20;;;29.00;90.40;;;;;;4994678;28;20461;-64
2021/06/26 12:27:13;;;;;;;8.33;7.73;;;29.40;84.50;;;;;;5005843;28;20517;-65
2021/06/26 12:29:45;;;;;;;7.67;7.17;;;29.60;86.10;;;;;;5010153;28;20441;-65
2021/06/26 12:32:23;;;;;;;7.37;6.97;;;29.50;84.40;;;;;;5010198;28;20468;-65
2021/06/26 12:34:50;;;;;;;7.93;7.53;;;29.60;83.60;;;;;;5014094;28;20521;-64
2021/06/26 12:37:27;;;;;;;7.53;7.00;;;29.70;81.70;;;;;;4994780;28;20458;-65
2021/06/26 12:40:01;;;;;;;8.27;7.77;;;29.70;83.40;;;;;;4994566;28;20843;-65
2021/06/26 12:42:28;;;;;;;7.63;7.23;;;29.40;81.60;;;;;;4993984;28;20808;-65
2021/06/26 12:44:57;;;;;;;7.97;7.47;;;29.40;86.50;;;;;;4994420;28;20453;-65
2021/06/26 12:47:23;;;;;;;8.23;7.63;;;29.30;79.10;;;;;;4994273;28;20508;-64
2021/06/26 12:50:01;;;;;;;7.60;7.10;;;29.30;83.10;;;;;;4994568;28;20457;-64
2021/06/26 12:52:27;;;;;;;8.43;7.70;;;29.40;85.10;;;;;;4994720;28;20477;-65
2021/06/26 12:54:55;;;;;;;9.30;8.60;;;28.90;84.80;;;;;;4994795;28;20812;-64
2021/06/26 12:57:23;;;;;;;7.73;7.30;;;28.70;84.70;;;;;;4994977;28;20807;-65
2021/06/26 12:59:49;;;;;;;8.47;7.80;;;28.70;85.90;;;;;;4997330;28;20458;-64
2021/06/26 13:02:19;;;;;;;8.43;7.63;;;28.40;86.70;;;;;;4997134;28;20481;-64
2021/06/26 13:04:49;;;;;;;8.20;7.70;;;28.20;87.60;;;;;;4997641;28;20456;-63
2021/06/26 13:07:21;;;;;;;7.63;7.13;;;28.10;90.00;;;;;;4997377;28;20442;-63
2021/06/26 13:09:49;;;;;;;7.90;7.50;;;28.40;89.80;;;;;;4997260;28;20454;-64
2021/06/26 13:12:19;;;;;;;7.47;7.07;;;28.20;90.30;;;;;;4997220;28;20507;-64
2021/06/26 13:14:47;;;;;;;7.33;6.73;;;28.30;89.80;;;;;;4997629;28;20488;-63
2021/06/26 13:17:16;;;;;;;7.30;6.80;;;28.30;87.80;;;;;;4997151;28;20457;-64
2021/06/26 13:19:44;;;;;;;7.27;6.87;;;28.70;90.30;;;;;;4997139;28;20454;-64
2021/06/26 13:22:11;;;;;;;6.90;6.50;;;28.90;87.40;;;;;;4997498;28;20479;-64
2021/06/26 13:24:38;;;;;;;8.20;7.60;;;29.00;85.00;;;;;;4998873;28;20461;-64
2021/06/26 13:27:05;;;;;;;6.77;6.37;;;28.70;83.30;;;;;;5002871;28;20523;-64
2021/06/26 13:29:32;;;;;;;6.07;5.67;;;28.70;88.50;;;;;;4997232;28;20477;-64
2021/06/26 13:31:59;;;;;;;6.10;5.70;;;28.70;82.00;;;;;;4999852;28;20478;-63
2021/06/26 13:34:26;;;;;;;6.50;6.10;;;28.80;78.50;;;;;;4999531;28;20472;-63
2021/06/26 13:36:55;;;;;;;6.33;5.93;;;28.90;83.90;;;;;;4997022;28;20813;-63
2021/06/26 13:39:22;;;;;;;7.70;7.10;;;28.70;81.30;;;;;;4996775;28;20819;-62
2021/06/26 13:41:49;;;;;;;7.23;6.63;;;28.60;81.80;;;;;;4996677;28;20485;-62
2021/06/26 13:44:15;;;;;;;6.97;6.57;;;28.70;83.80;;;;;;4996437;28;20449;-63
2021/06/26 13:46:44;;;;;;;7.10;6.67;;;28.80;86.60;;;;;;4996505;28;20941;-63
2021/06/26 13:49:11;;;;;;;6.90;6.50;;;28.70;86.90;;;;;;4996542;28;20454;-62
2021/06/26 13:51:38;;;;;;;7.13;6.63;;;28.60;86.90;;;;;;4996384;28;20561;-62
2021/06/26 13:54:07;;;;;;;6.80;6.30;;;28.70;88.70;;;;;;4996407;28;20477;-62
2021/06/26 13:56:34;;;;;;;6.87;6.47;;;28.50;88.10;;;;;;4996079;28;20945;-62
2021/06/26 13:59:01;;;;;;;6.50;6.10;;;28.70;86.80;;;;;;4996375;28;20462;-62
2021/06/26 14:01:27;;;;;;;7.03;6.63;;;28.70;86.90;;;;;;4996070;28;20482;-62
2021/06/26 14:03:54;;;;;;;7.57;7.07;;;28.60;86.00;;;;;;4996238;28;20450;-62
2021/06/26 14:06:21;;;;;;;7.57;7.10;;;28.10;88.90;;;;;;4996015;28;20457;-62
2021/06/26 14:08:48;;;;;;;7.00;6.60;;;28.20;90.30;;;;;;4996329;28;20454;-62
2021/06/26 14:11:16;;;;;;;9.10;8.03;;;28.20;89.20;;;;;;4994984;28;20484;-61
2021/06/26 14:13:43;;;;;;;8.37;7.00;;;28.50;89.90;;;;;;4995823;28;20488;-63
2021/06/26 14:16:10;;;;;;;6.47;6.07;;;28.80;88.60;;;;;;4995917;28;20465;-64
2021/06/26 14:18:37;;;;;;;6.60;6.30;;;28.90;89.10;;;;;;4996134;28;20457;-63
2021/06/26 14:21:05;;;;;;;7.53;7.03;;;29.00;86.30;;;;;;4995889;28;20480;-64
2021/06/26 14:23:32;;;;;;;7.53;7.10;;;28.80;87.50;;;;;;4996208;28;20802;-62
2021/06/26 14:25:59;;;;;;;6.70;6.10;;;28.60;87.90;;;;;;4996398;28;20457;-62
2021/06/26 14:28:27;;;;;;;6.73;6.33;;;28.50;88.00;;;;;;4996291;28;20457;-62
2021/06/26 14:30:54;;;;;;;34.67;8.27;;;28.30;87.40;;;;;;4996740;28;20478;-62
2021/06/26 14:33:21;;;;;;;6.70;6.30;;;28.10;88.50;;;;;;4996452;28;20461;-61
2021/06/26 14:35:47;;;;;;;7.60;6.90;;;28.00;89.40;;;;;;4995854;28;20945;-62
2021/06/26 14:38:14;;;;;;;7.40;6.80;;;27.80;89.60;;;;;;4995497;28;20449;-62
2021/06/26 14:40:41;;;;;;;8.33;7.63;;;27.80;90.10;;;;;;4995387;28;20470;-62
2021/06/26 14:43:09;;;;;;;7.87;7.17;;;27.90;91.00;;;;;;4995681;28;20450;-62
2021/06/26 14:45:37;;;;;;;6.93;6.53;;;28.00;89.20;;;;;;4995057;28;20456;-61
2021/06/26 14:48:05;;;;;;;7.30;6.83;;;28.00;91.10;;;;;;4995376;28;20449;-62
2021/06/26 14:50:32;;;;;;;7.57;7.00;;;28.00;90.40;;;;;;4997741;28;20456;-62
2021/06/26 14:52:58;;;;;;;6.40;6.10;;;27.80;89.80;;;;;;4998866;28;20449;-62
2021/06/26 14:55:25;;;;;;;6.90;6.40;;;28.00;90.70;;;;;;4998906;28;20485;-61
2021/06/26 14:57:52;;;;;;;6.60;6.10;;;28.00;90.00;;;;;;4998946;28;20926;-62
2021/06/26 15:00:19;;;;;;;6.03;5.73;;;28.00;90.10;;;;;;4997117;28;20464;-62
2021/06/26 15:02:48;;;;;;;6.00;5.70;;;27.80;89.00;;;;;;4995978;28;20445;-62
2021/06/26 15:05:15;;;;;;;7.00;6.50;;;27.90;86.80;;;;;;4995252;28;20438;-63
2021/06/26 15:07:41;;;;;;;6.70;6.20;;;27.80;89.50;;;;;;4995070;28;20457;-62
2021/06/26 15:10:09;;;;;;;6.60;6.20;;;27.80;86.80;;;;;;4994971;28;20941;-62
2021/06/26 15:12:36;;;;;;;6.67;6.17;;;27.90;89.50;;;;;;4995145;28;20482;-62
2021/06/26 15:15:04;;;;;;;7.70;7.10;;;28.00;88.20;;;;;;4995249;28;20473;-62
2021/06/26 15:17:30;;;;;;;6.73;6.33;;;28.10;90.50;;;;;;4994866;28;20466;-63
2021/06/26 15:19:59;;;;;;;7.07;6.67;;;28.20;90.40;;;;;;4994983;28;20453;-63
2021/06/26 15:22:25;;;;;;;7.90;7.30;;;28.30;90.00;;;;;;4995073;28;20478;-62
2021/06/26 15:24:52;;;;;;;7.20;6.80;;;28.20;90.50;;;;;;4994673;28;20808;-63
2021/06/26 15:27:19;;;;;;;6.90;6.50;;;28.30;90.80;;;;;;4994793;28;20453;-62
2021/06/26 15:29:45;;;;;;;7.93;7.33;;;28.20;88.40;;;;;;4994711;28;20457;-62
2021/06/26 15:32:12;;;;;;;9.93;7.13;;;28.10;88.60;;;;;;4994913;28;20477;-62
2021/06/26 15:34:39;;;;;;;7.20;6.70;;;28.00;88.40;;;;;;4994712;28;20480;-62
2021/06/26 15:37:07;;;;;;;7.83;7.27;;;28.00;91.90;;;;;;4994402;28;20446;-62
2021/06/26 15:39:36;;;;;;;6.67;6.07;;;28.10;90.80;;;;;;4995004;28;20450;-62
2021/06/26 15:42:04;;;;;;;6.47;6.07;;;28.20;90.60;;;;;;4995061;28;20473;-61
2021/06/26 15:44:31;;;;;;;6.33;6.03;;;28.30;89.70;;;;;;4994725;28;20453;-62
2021/06/26 15:46:57;;;;;;;6.70;6.17;;;28.40;90.70;;;;;;4994482;28;20465;-62
2021/06/26 15:49:25;;;;;;;7.80;7.30;;;28.50;89.70;;;;;;4994667;28;20462;-61
2021/06/26 15:51:51;;;;;;;6.67;6.23;;;28.50;89.30;;;;;;4994751;28;20484;-61
2021/06/26 15:54:20;;;;;;;7.93;7.40;;;28.50;90.00;;;;;;4995070;28;20889;-62
2021/06/26 15:56:46;;;;;;;7.60;7.10;;;28.50;90.50;;;;;;4995025;28;20512;-61
2021/06/26 15:59:13;;;;;;;7.87;7.33;;;28.50;87.00;;;;;;4994554;28;20457;-62
2021/06/26 16:01:40;;;;;;;7.63;7.23;;;28.40;89.20;;;;;;4994230;28;20493;-62
2021/06/26 16:04:07;;;;;;;7.30;6.73;;;28.40;90.50;;;;;;4994444;28;20453;-62
2021/06/26 16:06:34;;;;;;;7.80;7.30;;;28.30;90.40;;;;;;4994337;28;20449;-63
2021/06/26 16:09:00;;;;;;;7.80;7.20;;;28.00;90.70;;;;;;4994411;28;20458;-62
2021/06/26 16:11:28;;;;;;;8.10;7.60;;;28.20;90.70;;;;;;4994397;28;20481;-61
2021/06/26 16:13:56;;;;;;;7.60;7.10;;;28.10;90.60;;;;;;4994627;28;20454;-61
2021/06/26 16:16:23;;;;;;;8.43;7.73;;;28.10;91.20;;;;;;4994528;28;20453;-61
2021/06/26 16:18:49;;;;;;;8.70;8.20;;;28.40;91.50;;;;;;4994589;28;20466;-61
2021/06/26 16:21:17;;;;;;;8.33;7.83;;;28.30;90.70;;;;;;4994773;28;20484;-62
2021/06/26 16:23:44;;;;;;;7.70;7.20;;;28.50;92.30;;;;;;4994900;28;20453;-61
2021/06/26 16:26:11;;;;;;;7.63;7.13;;;28.60;90.70;;;;;;4994571;28;20457;-61
2021/06/26 16:28:39;;;;;;;7.40;6.93;;;28.60;88.30;;;;;;4994028;28;20922;-61
2021/06/26 16:31:06;;;;;;;7.00;6.60;;;28.50;89.80;;;;;;4994350;28;20989;-61
2021/06/26 16:33:32;;;;;;;8.07;7.60;;;28.20;88.30;;;;;;4994393;28;20458;-62
2021/06/26 16:36:02;;;;;;;8.57;7.97;;;27.90;91.00;;;;;;4997834;28;20477;-62
2021/06/26 16:38:30;;;;;;;7.63;7.23;;;28.00;90.40;;;;;;4997959;28;20458;-62
2021/06/26 16:40:59;;;;;;;7.70;7.20;;;27.90;91.50;;;;;;4997890;28;20565;-62
2021/06/26 16:43:28;;;;;;;8.17;7.67;;;27.70;90.90;;;;;;4997734;28;20548;-62
2021/06/26 16:45:58;;;;;;;7.93;7.23;;;27.80;91.10;;;;;;4997931;28;20461;-62